Alamillo, New Mexico
Current Conditions -  °F | °C
As of 9:55 PM on Friday 31 Oct 2014 (Local Time) from KONM Reporting Station
Scattered Clouds Scattered Clouds  
Wind Chill: 60°   Ceiling: Unl
Heat Index: 60°   Visibility: 10mi
Dew Point: 38°   Wind: 17mph
Humidity: 43%   Direction: 180°S
Pressure: 30.22"   Gusts: 26mph
Location:  34.262°N, 106.87°W
Report Text: KONM 010355Z AUTO 18015G23KT 10SM SCT120 16/03 A3022 RMK AO2 T01580032
Loading
Personal Weather Stations






























Interactive Weather Map
Tropical Storm Tracking
New forecast layout! Learn more

10-Day Weather Forecast

Advertisements
Track Severe Weather on mobile